createdAt,value
2023-02-15T00:00:22.834Z,71.72
2023-02-15T00:02:49.367Z,78.22
2023-02-15T00:05:15.945Z,74.05
2023-02-15T00:07:42.425Z,67.63
2023-02-15T00:10:09.604Z,73.28
2023-02-15T00:12:36.153Z,67.93
2023-02-15T00:15:02.592Z,65.43
2023-02-15T00:17:29.445Z,73.15
2023-02-15T00:19:55.842Z,69.72
2023-02-15T00:22:22.352Z,70.95
2023-02-15T00:24:49.074Z,72.03
2023-02-15T00:27:15.501Z,71.65
2023-02-15T00:29:41.980Z,68.95
2023-02-15T00:32:08.551Z,70.60
2023-02-15T00:34:35.006Z,68.68
2023-02-15T00:37:01.496Z,68.18
2023-02-15T00:39:30.012Z,70.68
2023-02-15T00:41:56.497Z,63.50
2023-02-15T00:44:22.892Z,76.00
2023-02-15T00:46:49.313Z,64.10
2023-02-15T00:49:15.810Z,77.75
2023-02-15T00:51:42.281Z,66.97
2023-02-15T00:54:08.731Z,71.30
2023-02-15T00:56:35.217Z,66.55
2023-02-15T00:59:01.695Z,76.07
2023-02-15T01:01:28.247Z,76.30
2023-02-15T01:03:54.846Z,73.40
2023-02-15T01:06:21.682Z,75.20
2023-02-15T01:08:48.615Z,84.55
2023-02-15T01:11:16.607Z,80.95
2023-02-15T01:13:43.114Z,80.97
2023-02-15T01:16:09.660Z,71.43
2023-02-15T01:18:36.353Z,77.32
2023-02-15T01:21:10.294Z,70.50
2023-02-15T01:23:37.447Z,71.13
2023-02-15T01:26:04.349Z,73.10
2023-02-15T01:28:30.836Z,72.93
2023-02-15T01:30:57.277Z,70.88
2023-02-15T01:33:23.800Z,70.57
2023-02-15T01:35:56.607Z,66.63
2023-02-15T01:38:23.055Z,70.63
2023-02-15T01:40:51.871Z,67.80
2023-02-15T01:43:19.164Z,66.90
2023-02-15T01:45:48.358Z,76.50
2023-02-15T01:48:22.186Z,75.38
2023-02-15T01:50:51.627Z,74.75
2023-02-15T01:53:21.613Z,75.22
2023-02-15T01:55:51.574Z,62.90
2023-02-15T01:58:18.296Z,69.35
2023-02-15T02:00:45.340Z,67.07
2023-02-15T02:03:12.159Z,65.32
2023-02-15T02:05:39.805Z,62.10
2023-02-15T02:08:07.127Z,67.13
2023-02-15T02:10:33.648Z,64.60
2023-02-15T02:13:02.247Z,53.28
2023-02-15T02:15:41.847Z,60.22
2023-02-15T02:18:19.923Z,58.67
2023-02-15T02:20:49.430Z,59.83
2023-02-15T02:23:21.906Z,57.50
2023-02-15T02:26:11.528Z,65.65
2023-02-15T02:28:56.771Z,57.72
2023-02-15T02:31:38.856Z,55.92
2023-02-15T02:34:08.217Z,53.55
2023-02-15T02:36:53.335Z,61.22
2023-02-15T02:39:25.535Z,57.83
2023-02-15T02:41:51.883Z,58.25
2023-02-15T02:44:23.834Z,57.30
2023-02-15T02:46:56.179Z,55.65
2023-02-15T02:49:32.699Z,49.40
2023-02-15T02:52:19.122Z,51.40
2023-02-15T02:54:45.597Z,52.47
2023-02-15T02:57:12.092Z,55.63
2023-02-15T02:59:42.557Z,56.22
2023-02-15T03:02:18.771Z,51.50
2023-02-15T03:04:47.554Z,50.40
2023-02-15T03:07:23.155Z,51.58
2023-02-15T03:09:52.224Z,51.45
2023-02-15T03:12:23.285Z,52.95
2023-02-15T03:14:52.672Z,47.00
2023-02-15T03:17:20.967Z,55.15
2023-02-15T03:19:49.569Z,51.47
2023-02-15T03:22:22.425Z,55.33
2023-02-15T03:24:54.696Z,48.88
2023-02-15T03:27:23.377Z,53.10
2023-02-15T03:29:53.221Z,60.22
2023-02-15T03:32:20.177Z,55.63
2023-02-15T03:34:46.970Z,54.25
2023-02-15T03:37:32.245Z,64.00
2023-02-15T03:40:18.646Z,53.85
2023-02-15T03:42:46.276Z,53.25
2023-02-15T03:45:15.760Z,59.10
2023-02-15T03:47:47.695Z,57.63
2023-02-15T03:50:35.986Z,56.85
2023-02-15T03:53:03.601Z,62.45
2023-02-15T03:55:30.264Z,57.72
2023-02-15T03:58:15.236Z,59.85
2023-02-15T04:01:02.736Z,57.45
2023-02-15T04:03:32.351Z,55.13
2023-02-15T04:05:58.948Z,66.65
2023-02-15T04:08:46.748Z,59.28
2023-02-15T04:11:13.190Z,60.08
2023-02-15T04:13:39.863Z,59.50
2023-02-15T04:16:07.479Z,58.72
2023-02-15T04:18:57.405Z,61.80
2023-02-15T04:21:42.752Z,62.55
2023-02-15T04:24:28.024Z,63.63
2023-02-15T04:26:54.594Z,58.95
2023-02-15T04:29:21.960Z,60.38
2023-02-15T04:31:48.590Z,62.55
2023-02-15T04:34:15.485Z,64.07
2023-02-15T04:36:41.970Z,67.70
2023-02-15T04:39:08.815Z,66.78
2023-02-15T04:41:35.359Z,65.90
2023-02-15T04:44:02.119Z,67.57
2023-02-15T04:46:29.014Z,66.45
2023-02-15T04:48:55.733Z,77.65
2023-02-15T04:51:22.356Z,69.55
2023-02-15T04:53:48.876Z,70.50
2023-02-15T04:56:15.364Z,77.78
2023-02-15T04:58:44.712Z,70.38
2023-02-15T05:01:11.293Z,79.72
2023-02-15T05:03:37.877Z,71.28
2023-02-15T05:06:05.105Z,72.30
2023-02-15T05:08:32.011Z,67.22
2023-02-15T05:10:58.440Z,69.47
2023-02-15T05:13:25.476Z,85.78
2023-02-15T05:15:52.891Z,75.82
2023-02-15T05:18:20.052Z,75.32
2023-02-15T05:20:46.516Z,84.38
2023-02-15T05:23:13.025Z,70.05
2023-02-15T05:25:57.894Z,75.30
2023-02-15T05:28:25.548Z,74.40
2023-02-15T05:30:59.116Z,72.63
2023-02-15T05:33:25.894Z,70.68
2023-02-15T05:35:52.450Z,68.28
2023-02-15T05:38:18.946Z,66.90
2023-02-15T05:40:45.362Z,68.25
2023-02-15T05:43:11.854Z,70.22
2023-02-15T05:45:38.322Z,71.32
2023-02-15T05:48:04.849Z,71.95
2023-02-15T05:50:31.678Z,76.15
2023-02-15T05:52:58.116Z,66.82
2023-02-15T05:55:24.579Z,75.18
2023-02-15T05:57:51.082Z,74.72
2023-02-15T06:00:17.751Z,72.43
2023-02-15T06:02:44.271Z,80.78
2023-02-15T06:05:10.864Z,75.72
2023-02-15T06:07:37.428Z,77.72
2023-02-15T06:10:04.272Z,78.30
2023-02-15T06:12:30.774Z,82.80
2023-02-15T06:14:57.153Z,124.57
2023-02-15T06:17:23.604Z,103.05
2023-02-15T06:19:50.101Z,91.85
2023-02-15T06:22:16.610Z,88.32
2023-02-15T06:24:43.658Z,88.88
2023-02-15T06:27:13.069Z,86.47
2023-02-15T06:29:39.589Z,85.15
2023-02-15T06:32:06.524Z,85.95
2023-02-15T06:34:32.978Z,90.97
2023-02-15T06:36:59.432Z,88.50
2023-02-15T06:39:26.000Z,90.95
2023-02-15T06:41:52.525Z,83.82
2023-02-15T06:44:18.956Z,72.18
2023-02-15T06:46:45.516Z,68.47
2023-02-15T06:49:12.036Z,71.03
2023-02-15T06:51:38.515Z,74.95
2023-02-15T06:54:04.986Z,74.63
2023-02-15T06:56:31.454Z,72.68
2023-02-15T06:58:57.869Z,68.75
2023-02-15T07:01:24.347Z,93.07
2023-02-15T07:03:50.922Z,125.55
2023-02-15T07:06:17.344Z,110.03
2023-02-15T07:08:43.789Z,91.65
2023-02-15T07:11:28.870Z,80.78
2023-02-15T07:13:55.237Z,76.38
2023-02-15T07:16:21.719Z,71.90
2023-02-15T07:18:48.254Z,70.32
2023-02-15T07:21:14.706Z,67.75
2023-02-15T07:23:41.398Z,71.30
2023-02-15T07:26:07.944Z,58.72
2023-02-15T07:28:35.206Z,66.22
2023-02-15T07:31:04.771Z,63.05
2023-02-15T07:33:35.047Z,66.90
2023-02-15T07:36:03.222Z,62.17
2023-02-15T07:38:39.842Z,66.78
2023-02-15T07:41:10.352Z,70.35
2023-02-15T07:43:37.679Z,59.38
2023-02-15T07:46:05.414Z,63.78
2023-02-15T07:48:32.142Z,63.95
2023-02-15T07:51:02.304Z,58.00
2023-02-15T07:53:28.795Z,55.45
2023-02-15T07:55:56.095Z,50.83
2023-02-15T07:58:42.545Z,57.05
2023-02-15T08:01:09.419Z,51.53
2023-02-15T08:03:35.939Z,54.28
2023-02-15T08:06:02.874Z,50.70
2023-02-15T08:08:32.373Z,52.40
2023-02-15T08:11:21.813Z,54.13
2023-02-15T08:13:55.124Z,50.10
2023-02-15T08:16:24.452Z,52.50
2023-02-15T08:18:51.818Z,47.97
2023-02-15T08:21:18.308Z,52.80
2023-02-15T08:23:44.874Z,42.85
2023-02-15T08:26:11.370Z,47.97
2023-02-15T08:28:39.756Z,43.90
2023-02-15T08:31:10.144Z,47.53
2023-02-15T08:33:37.667Z,45.20
2023-02-15T08:36:08.736Z,49.75
2023-02-15T15:53:54.371Z,37.90
2023-02-15T15:58:55.313Z,35.95
2023-02-15T16:01:29.171Z,31.90
2023-02-15T16:03:57.228Z,39.42
2023-02-15T16:06:35.035Z,61.15
2023-02-15T16:09:21.470Z,54.90
2023-02-15T16:11:49.432Z,45.17
2023-02-15T16:14:36.089Z,45.55
2023-02-15T16:17:04.423Z,45.65
2023-02-15T16:19:33.560Z,48.85
2023-02-15T16:22:01.061Z,43.60
2023-02-15T16:24:54.513Z,46.78
2023-02-15T16:27:21.042Z,60.88
2023-02-15T16:29:47.627Z,47.70
2023-02-15T16:32:21.503Z,43.15
2023-02-15T16:34:54.550Z,52.65
2023-02-15T16:37:24.395Z,66.05
2023-02-15T16:39:51.267Z,57.08
2023-02-15T16:42:18.659Z,102.10
2023-02-15T16:45:08.887Z,62.70
2023-02-15T16:47:38.224Z,57.40
2023-02-15T16:50:05.359Z,65.68
2023-02-15T16:52:32.097Z,55.28
2023-02-15T16:55:00.552Z,54.53
2023-02-15T16:57:29.660Z,60.28
2023-02-15T16:59:58.423Z,65.88
2023-02-15T17:02:53.267Z,60.13
2023-02-15T17:05:20.125Z,79.18
2023-02-15T17:07:51.139Z,56.60
2023-02-15T17:10:31.465Z,66.53
2023-02-15T17:13:13.987Z,71.90
2023-02-15T17:15:44.906Z,74.38
2023-02-15T17:18:19.434Z,47.87
2023-02-15T17:20:47.052Z,61.60
2023-02-15T17:23:22.423Z,57.10
2023-02-15T17:25:49.578Z,56.88
2023-02-15T17:28:18.271Z,52.05
2023-02-15T17:30:47.248Z,124.40
2023-02-15T17:33:30.137Z,115.60
2023-02-15T17:36:12.690Z,490.95
2023-02-15T17:38:40.055Z,277.38
2023-02-15T17:41:06.556Z,206.20
2023-02-15T17:43:33.328Z,201.13
2023-02-15T17:46:00.022Z,162.57
2023-02-15T17:48:32.723Z,164.70
2023-02-15T17:51:01.425Z,155.38
2023-02-15T17:53:28.136Z,149.68
2023-02-15T17:55:54.633Z,165.25
2023-02-15T17:58:21.210Z,146.52
2023-02-15T18:01:11.048Z,161.48
2023-02-15T18:03:59.293Z,176.43
2023-02-15T18:06:44.526Z,182.95
2023-02-15T18:09:30.423Z,194.43
2023-02-15T18:11:57.297Z,182.60
2023-02-15T18:14:23.725Z,187.43
2023-02-15T18:16:50.284Z,190.25
2023-02-15T18:19:21.270Z,191.18
2023-02-15T18:21:48.068Z,186.57
2023-02-15T18:24:19.511Z,183.95
2023-02-15T18:26:46.023Z,180.43
2023-02-15T18:29:13.035Z,195.63
2023-02-15T18:31:40.129Z,174.77
2023-02-15T18:34:07.513Z,178.75
2023-02-15T18:36:37.590Z,203.60
2023-02-15T18:39:08.855Z,202.27
2023-02-15T18:41:35.506Z,195.70
2023-02-15T18:44:01.970Z,188.02
2023-02-15T18:46:28.402Z,207.02
2023-02-15T18:48:54.846Z,202.93
2023-02-15T18:51:24.153Z,204.00
2023-02-15T18:53:52.632Z,220.57
2023-02-15T18:56:21.224Z,225.00
2023-02-15T18:58:47.912Z,230.05
2023-02-15T19:01:16.914Z,215.60
2023-02-15T19:03:47.724Z,230.68
2023-02-15T19:06:16.077Z,227.82
2023-02-15T19:08:44.272Z,230.98
2023-02-15T19:11:23.126Z,235.63
2023-02-15T19:13:50.412Z,232.63
2023-02-15T19:16:19.712Z,271.55
2023-02-15T19:18:46.185Z,260.83
2023-02-15T19:21:15.856Z,250.07
2023-02-15T19:23:42.388Z,237.20
2023-02-15T19:26:10.259Z,250.32
2023-02-15T19:28:36.847Z,257.40
2023-02-15T19:31:03.431Z,261.75
2023-02-15T19:33:29.948Z,268.90
2023-02-15T19:35:57.713Z,248.70
2023-02-15T19:38:26.290Z,250.68
2023-02-15T19:40:53.039Z,263.70
2023-02-15T19:43:20.716Z,237.77
2023-02-15T19:45:47.261Z,226.30
2023-02-15T19:48:16.397Z,215.77
2023-02-15T19:50:45.442Z,223.02
2023-02-15T19:53:27.995Z,232.73
2023-02-15T19:55:55.628Z,228.38
2023-02-15T19:58:22.150Z,241.32
2023-02-15T20:00:49.201Z,252.68
2023-02-15T20:03:15.949Z,265.95
2023-02-15T20:05:42.861Z,259.58
2023-02-15T20:08:19.670Z,262.55
2023-02-15T20:10:46.485Z,276.42
2023-02-15T20:13:14.060Z,267.67
2023-02-15T20:15:41.115Z,258.17
2023-02-15T20:18:07.950Z,247.25
2023-02-15T20:20:34.415Z,229.30
2023-02-15T20:23:00.945Z,235.05
2023-02-15T20:25:28.408Z,215.52
2023-02-15T20:27:55.386Z,217.00
2023-02-15T20:30:23.571Z,201.80
2023-02-15T20:32:50.609Z,234.77
2023-02-15T20:35:18.427Z,221.40
2023-02-15T20:37:52.651Z,225.52
2023-02-15T20:40:29.861Z,225.55
2023-02-15T20:42:56.676Z,212.38
2023-02-15T20:45:24.906Z,207.27
2023-02-15T20:47:51.938Z,190.80
2023-02-15T20:50:44.508Z,182.68
2023-02-15T20:53:11.287Z,168.35
2023-02-15T20:55:37.810Z,156.13
2023-02-15T20:58:13.215Z,153.18
2023-02-15T21:00:39.683Z,159.63
2023-02-15T21:03:10.816Z,168.18
2023-02-15T21:05:37.257Z,173.68
2023-02-15T21:08:10.233Z,172.25
2023-02-15T21:10:36.668Z,177.02
2023-02-15T21:13:04.572Z,176.82
2023-02-15T21:15:31.109Z,172.73
2023-02-15T21:17:58.492Z,173.18
2023-02-15T21:20:25.783Z,168.35
2023-02-15T21:22:52.619Z,175.10
2023-02-15T21:25:22.529Z,172.05
2023-02-15T21:27:49.033Z,158.20
2023-02-15T21:30:16.076Z,165.75
2023-02-15T21:32:43.084Z,151.88
2023-02-15T21:35:13.692Z,138.13
2023-02-15T21:37:40.969Z,121.55
2023-02-15T21:40:30.849Z,127.93
2023-02-15T21:43:16.177Z,121.05
2023-02-15T21:46:01.655Z,112.47
2023-02-15T21:48:28.372Z,109.45
2023-02-15T21:51:13.466Z,114.47
2023-02-15T21:53:45.977Z,116.40
2023-02-15T21:56:14.497Z,107.20
2023-02-15T21:58:40.986Z,109.00
2023-02-15T22:01:16.442Z,102.30
2023-02-15T22:03:42.945Z,101.90
2023-02-15T22:06:12.162Z,91.05
2023-02-15T22:08:38.618Z,90.38
2023-02-15T22:11:10.142Z,89.13
2023-02-15T22:13:36.858Z,86.03
2023-02-15T22:16:03.685Z,87.15
2023-02-15T22:18:33.822Z,85.05
2023-02-15T22:21:00.804Z,85.80
2023-02-15T22:23:27.572Z,81.93
2023-02-15T22:25:56.198Z,96.47
2023-02-15T22:28:25.364Z,87.93
2023-02-15T22:30:51.825Z,82.15
2023-02-15T22:33:26.348Z,82.22
2023-02-15T22:35:53.184Z,84.03
2023-02-15T22:38:20.183Z,98.88
2023-02-15T22:40:47.745Z,90.30
2023-02-15T22:43:29.197Z,88.80
2023-02-15T22:45:59.697Z,97.57
2023-02-15T22:48:26.255Z,101.22
2023-02-15T22:50:52.730Z,94.63
2023-02-15T22:53:19.217Z,88.20
2023-02-15T22:55:46.121Z,93.32
2023-02-15T22:58:23.734Z,90.53
2023-02-15T23:00:50.484Z,85.20
2023-02-15T23:03:22.203Z,86.80
2023-02-15T23:05:49.019Z,86.43
2023-02-15T23:08:15.757Z,94.47
2023-02-15T23:10:43.233Z,97.97
2023-02-15T23:13:38.855Z,86.78
2023-02-15T23:16:06.865Z,81.03
2023-02-15T23:18:40.208Z,83.32
2023-02-15T23:21:13.190Z,89.97
2023-02-15T23:23:40.487Z,84.40
2023-02-15T23:26:12.335Z,86.38
2023-02-15T23:31:14.413Z,87.13
2023-02-15T23:33:41.157Z,73.28
2023-02-15T23:36:20.841Z,73.97
2023-02-15T23:38:47.308Z,77.78
2023-02-15T23:41:19.484Z,86.88
2023-02-15T23:44:02.980Z,82.00
2023-02-15T23:46:32.273Z,71.05
2023-02-15T23:48:58.803Z,73.07
2023-02-15T23:51:29.850Z,79.53
2023-02-15T23:53:56.922Z,83.03
2023-02-15T23:56:23.385Z,74.03
2023-02-15T23:58:50.492Z,80.47
